Time,TemperatureF,DewpointF,PressureIn,WindDirection,WindDirectionDegrees,WindSpeedMPH,WindSpeedGustMPH,Humidity,HourlyPrecipIn,Conditions,Clouds,dailyrainin,SoftwareType,DateUTC
2013-03-15 00:00:00,19.0,16.8,29.80,East,90,6.0,6.0,91,0.00,CL,CL,0.00,WeatherDisplay:10.37,2013-03-15 04:00:00,
2013-03-15 00:30:00,18.0,12.0,29.80,NW,305,3.0,5.0,77,0.00,FEW,SCT,0.00,WeatherDisplay:10.37,2013-03-15 04:30:00,
2013-03-15 01:00:00,19.0,11.5,29.80,WSW,248,6.0,6.0,72,0.00,CL,CL,0.00,WeatherDisplay:10.37,2013-03-15 05:00:00,
2013-03-15 01:30:00,17.0,15.8,29.80,SW,217,2.0,2.0,95,0.00,FEW,SCT,0.00,WeatherDisplay:10.37,2013-03-15 05:30:00,
2013-03-15 02:00:00,18.0,13.7,29.80,WSW,248,3.0,6.0,83,0.00,CL,CL,0.00,WeatherDisplay:10.37,2013-03-15 06:00:00,
2013-03-15 03:00:00,17.0,16.5,29.80,West,270,0.0,2.0,98,0.00,CL,CL,0.00,WeatherDisplay:10.37,2013-03-15 07:00:00,
2013-03-15 08:00:00,16.7,16.2,29.88,SSW,201,2.0,2.0,98,0.00,CLR,SCT,0.00,WeatherDisplay:10.37,2013-03-15 12:00:00,
2013-03-15 08:30:00,20.1,12.2,29.88,WNW,282,5.0,7.0,71,0.00,CLR,SCT,0.00,WeatherDisplay:10.37,2013-03-15 12:30:00,
2013-03-15 09:00:00,22.1,11.8,29.88,West,276,6.0,10.0,64,0.00,CLR,SCT,0.00,WeatherDisplay:10.37,2013-03-15 13:00:00,
2013-03-15 09:30:00,25.3,12.5,29.88,West,271,5.0,9.0,58,0.00,CLR,SCT,0.00,WeatherDisplay:10.37,2013-03-15 13:30:00,
2013-03-15 10:00:00,27.1,13.0,29.87,NW,318,2.0,7.0,55,0.00,CLR,SCT,0.00,WeatherDisplay:10.37,2013-03-15 14:00:00,
2013-03-15 10:30:00,28.3,12.0,29.85,West,268,3.0,7.0,50,0.00,CLR,SCT,0.00,WeatherDisplay:10.37,2013-03-15 14:30:00,
2013-03-15 11:00:00,29.8,11.5,29.84,WSW,255,7.0,13.0,46,0.00,CLR,SCT,0.00,WeatherDisplay:10.37,2013-03-15 15:00:00,
2013-03-15 11:30:00,31.5,11.0,29.82,WSW,258,3.0,10.0,42,0.00,FEW,SCT,0.00,WeatherDisplay:10.37,2013-03-15 15:30:00,
2013-03-15 12:00:00,32.4,11.8,29.82,NNW,329,2.0,10.0,42,0.00,FEW,SCT,0.00,WeatherDisplay:10.37,2013-03-15 16:00:00,
2013-03-15 12:30:00,33.6,11.8,29.79,SE,136,5.0,8.0,40,0.00,OVC,SCT,0.00,WeatherDisplay:10.37,2013-03-15 16:30:00,
2013-03-15 13:00:00,37.1,9.9,29.78,West,260,5.0,10.0,32,0.00,OVC,SCT,0.00,WeatherDisplay:10.37,2013-03-15 17:00:00,
2013-03-15 13:30:00,39.1,12.3,29.75,South,171,6.0,10.0,33,0.00,SCT,SCT,0.00,WeatherDisplay:10.37,2013-03-15 17:30:00,
2013-03-15 14:00:00,39.6,12.9,29.73,SW,217,7.0,10.0,33,0.00,SCT,SCT,0.00,WeatherDisplay:10.37,2013-03-15 18:00:00,
2013-03-15 14:30:00,40.1,15.9,29.70,NW,305,3.0,12.0,37,0.00,CLR,SCT,0.00,WeatherDisplay:10.37,2013-03-15 18:30:00,
2013-03-15 15:00:00,40.2,21.1,29.70,WSW,247,3.0,12.0,46,0.00,CLR,SCT,0.00,WeatherDisplay:10.37,2013-03-15 19:00:00,
2013-03-15 15:30:00,38.7,21.7,29.69,SSE,154,5.0,12.0,50,0.00,BKN,SCT,0.00,WeatherDisplay:10.37,2013-03-15 19:30:00,
2013-03-15 16:00:00,39.7,21.6,29.68,WNW,290,5.0,10.0,48,0.00,BKN,SCT,0.00,WeatherDisplay:10.37,2013-03-15 20:00:00,
2013-03-15 16:30:00,39.4,22.3,29.65,SSW,197,8.0,13.0,50,0.00,OVC,SCT,0.00,WeatherDisplay:10.37,2013-03-15 20:30:00,
2013-03-15 17:00:00,39.2,23.5,29.65,South,191,5.0,12.0,53,0.00,OVC,SCT,0.00,WeatherDisplay:10.37,2013-03-15 21:00:00,
2013-03-15 17:29:00,37.5,30.6,29.64,South,189,3.0,14.0,76,0.00,OVC,SCT,0.00,WeatherDisplay:10.37,2013-03-15 21:29:00,
2013-03-15 18:00:00,37.8,33.1,29.64,WNW,291,5.0,6.0,83,0.00,OVC,SCT,0.00,WeatherDisplay:10.37,2013-03-15 22:00:00,
2013-03-15 18:29:00,36.7,36.2,29.64,ENE,66,1.0,9.0,98,0.00,OVC,SCT,0.00,WeatherDisplay:10.37,2013-03-15 22:29:00,
2013-03-15 19:00:00,36.7,36.2,29.65,ENE,66,1.0,1.0,98,0.00,OVC,SCT,0.00,WeatherDisplay:10.37,2013-03-15 23:00:00,
2013-03-15 19:29:00,34.7,34.2,29.65,WSW,255,1.0,12.0,98,0.00,OVC,SCT,0.00,WeatherDisplay:10.37,2013-03-15 23:29:00,
2013-03-15 19:59:00,34.9,34.4,29.67,South,172,3.0,10.0,98,0.00,OVC,SCT,0.00,WeatherDisplay:10.37,2013-03-15 23:59:00,
2013-03-15 20:30:00,34.0,33.5,29.66,WNW,292,6.0,7.0,98,0.00,OVC,SCT,0.00,WeatherDisplay:10.37,2013-03-16 00:30:00,
2013-03-15 21:00:00,34.0,33.5,29.66,East,88,2.0,6.0,98,0.00,OVC,SCT,0.00,WeatherDisplay:10.37,2013-03-16 01:00:00,
2013-03-15 21:29:00,34.0,33.5,29.67,East,88,2.0,3.0,98,0.00,SCT,SCT,0.00,WeatherDisplay:10.37,2013-03-16 01:29:00,
2013-03-15 21:59:00,34.0,33.5,29.67,East,88,2.0,3.0,98,0.00,-SN,SCT,0.00,WeatherDisplay:10.37,2013-03-16 01:59:00,
2013-03-15 22:29:00,34.0,33.5,29.66,East,88,2.0,3.0,98,0.00,-SN,SCT,0.00,WeatherDisplay:10.37,2013-03-16 02:29:00,